Time;durP1;ratioP1;P1;durP2;ratioP2;P2;SDS_P1;SDS_P2;PMS_P1;PMS_P2;Temp;Humidity;BMP_temperature;BMP_pressure;BME280_temperature;BME280_humidity;BME280_pressure;Samples;Min_cycle;Max_cycle;Signal;HPM_P1;HPM_P2
2022/12/21 00:01:26;;;;;;;4.03;3.73;;;24.30;39.40;;;-142.21;32.83;112049.66;5072956;28;20451;-79
2022/12/21 00:03:56;;;;;;;4.33;3.93;;;24.30;39.50;;;-142.21;33.08;112049.66;5072989;28;20236;-80
2022/12/21 00:06:26;;;;;;;3.93;3.63;;;24.30;39.40;;;-142.21;32.97;112049.66;5071324;28;20201;-79
2022/12/21 00:08:56;;;;;;;4.10;3.80;;;24.30;39.50;;;-142.21;32.99;112049.66;5073431;28;20304;-79
2022/12/21 00:11:26;;;;;;;4.00;3.67;;;24.40;39.60;;;-142.21;32.77;112049.66;5072994;28;20185;-81
2022/12/21 00:13:56;;;;;;;4.40;4.00;;;24.30;39.50;;;-142.21;32.83;112049.66;5073514;28;20285;-78
2022/12/21 00:16:27;;;;;;;4.27;3.87;;;24.30;39.50;;;-142.21;33.07;112049.66;5073160;28;20185;-80
2022/12/21 00:18:56;;;;;;;4.27;3.87;;;24.30;39.50;;;-142.21;33.13;112049.66;5072911;28;20189;-80
2022/12/21 00:21:28;;;;;;;4.60;4.20;;;24.30;39.50;;;-142.21;32.97;112049.66;5072730;28;20224;-80
2022/12/21 00:23:58;;;;;;;4.20;3.90;;;24.30;39.50;;;-142.21;32.90;112049.66;5073227;28;20284;-80
2022/12/21 00:26:28;;;;;;;4.03;3.73;;;24.30;39.50;;;-142.21;32.80;112049.66;5072734;28;20209;-80
2022/12/21 00:28:57;;;;;;;4.27;3.97;;;24.30;39.50;;;-142.21;32.96;112049.66;5073310;28;20193;-80
2022/12/21 00:31:27;;;;;;;4.30;3.90;;;24.30;39.50;;;-142.21;32.97;112049.66;5072363;28;20201;-80
2022/12/21 00:33:56;;;;;;;4.07;3.70;;;24.30;39.50;;;-142.21;33.19;112049.66;5072684;28;20239;-79
2022/12/21 00:36:28;;;;;;;4.33;4.00;;;24.30;39.50;;;-142.21;33.00;112049.66;5072322;28;20233;-80
2022/12/21 00:38:55;;;;;;;4.53;4.13;;;24.30;39.50;;;-142.21;33.03;112049.66;5072859;28;20252;-80
2022/12/21 00:41:27;;;;;;;3.97;3.67;;;24.30;39.40;;;-142.21;32.99;112049.66;5072361;28;20296;-81
2022/12/21 00:43:55;;;;;;;4.50;4.10;;;24.30;39.50;;;-142.21;32.91;112049.66;5072779;28;20201;-81
2022/12/21 00:46:25;;;;;;;4.37;4.07;;;24.30;39.40;;;-142.21;33.20;112049.66;5072231;28;20255;-79
2022/12/21 00:48:53;;;;;;;3.93;3.60;;;24.30;39.50;;;-142.21;33.03;112049.66;5072717;28;20671;-80
2022/12/21 00:51:22;;;;;;;3.80;3.50;;;24.30;39.50;;;-142.21;32.97;112049.66;5072615;28;20232;-80
2022/12/21 00:53:53;;;;;;;4.20;3.80;;;24.30;39.50;;;-142.21;33.06;112049.66;5072355;28;20536;-78
2022/12/21 00:56:20;;;;;;;3.97;3.67;;;24.30;40.10;;;-142.21;32.88;112049.66;5072245;28;20230;-79
2022/12/21 00:58:48;;;;;;;4.23;3.93;;;24.30;39.40;;;-142.21;32.99;112049.66;5072773;28;20262;-79
2022/12/21 01:01:19;;;;;;;4.33;3.93;;;24.30;39.50;;;-142.21;33.00;112049.66;5072516;28;20208;-79
2022/12/21 01:03:47;;;;;;;4.20;3.90;;;24.30;39.50;;;-142.21;32.81;112049.66;5071977;28;20651;-80
2022/12/21 01:06:17;;;;;;;4.20;3.80;;;24.30;39.50;;;-142.21;33.12;112049.66;5072688;28;20695;-80
2022/12/21 01:08:46;;;;;;;4.23;3.93;;;24.30;39.50;;;-142.21;33.13;112049.66;5072537;28;20343;-80
2022/12/21 01:11:18;;;;;;;3.90;3.60;;;24.30;39.50;;;-142.21;32.98;112049.66;5072449;28;20232;-80
2022/12/21 01:13:46;;;;;;;4.00;3.70;;;24.30;39.40;;;-142.21;32.93;112049.66;5072271;28;20272;-82
2022/12/21 01:16:17;;;;;;;4.03;3.73;;;24.30;39.40;;;-142.21;32.75;112049.66;5072498;28;20205;-80
2022/12/21 01:18:44;;;;;;;4.23;3.93;;;24.40;39.60;;;-142.21;32.85;112049.66;5071632;28;20620;-82
2022/12/21 01:21:22;;;;;;;4.10;3.70;;;24.40;39.50;;;-142.21;32.81;112049.66;5072287;28;20653;-80
2022/12/21 01:23:50;;;;;;;3.80;3.50;;;24.40;39.50;;;-142.21;33.20;112049.66;5072127;28;20258;-79
2022/12/21 01:26:22;;;;;;;3.57;3.27;;;24.40;39.50;;;-142.21;32.96;112049.66;5072313;28;20284;-80
2022/12/21 01:28:49;;;;;;;3.67;3.37;;;24.40;39.40;;;-142.21;32.92;112049.66;5072355;28;20213;-81
2022/12/21 01:31:17;;;;;;;3.97;3.67;;;24.40;39.40;;;-142.21;32.85;112049.66;5072366;28;20739;-80
2022/12/21 01:33:44;;;;;;;4.17;3.80;;;24.40;39.40;;;-142.21;32.88;112049.66;5072051;28;20236;-82
2022/12/21 01:36:16;;;;;;;4.20;3.90;;;24.40;39.60;;;-142.21;33.14;112049.66;5072202;28;20291;-81
2022/12/21 01:38:44;;;;;;;4.30;4.00;;;24.40;39.60;;;-142.21;33.18;112049.66;5071677;28;20613;-81
2022/12/21 01:41:15;;;;;;;3.83;3.53;;;24.40;39.60;;;-142.21;33.06;112049.66;5072275;28;20649;-81
2022/12/21 01:43:48;;;;;;;3.73;3.43;;;24.40;39.60;;;-142.21;32.83;112049.66;5072873;28;20283;-81
2022/12/21 01:46:23;;;;;;;4.23;3.83;;;24.40;39.60;;;-142.21;32.97;112049.66;5092135;28;20194;-80
2022/12/21 01:49:01;;;;;;;3.67;3.37;;;24.40;39.60;;;-142.21;32.87;112049.66;5082340;28;20251;-80
2022/12/21 01:51:30;;;;;;;4.27;3.93;;;24.40;39.60;;;-142.21;32.87;112049.66;5072211;28;20227;-81
2022/12/21 01:54:05;;;;;;;3.77;3.47;;;24.40;40.10;;;-142.21;32.87;112049.66;5071236;28;20205;-80
2022/12/21 01:56:37;;;;;;;3.77;3.47;;;24.40;39.60;;;-142.21;33.21;112049.66;5070898;28;20276;-79
2022/12/21 01:59:11;;;;;;;4.00;3.70;;;24.40;39.60;;;-142.21;32.85;112049.66;5072448;28;20579;-79
2022/12/21 02:01:40;;;;;;;4.20;3.80;;;24.40;39.60;;;-142.21;33.03;112049.66;5071519;28;20273;-80
2022/12/21 02:04:09;;;;;;;3.77;3.47;;;24.40;39.60;;;-142.21;33.01;112049.66;5071644;28;20240;-81
2022/12/21 02:06:45;;;;;;;3.97;3.67;;;24.40;39.60;;;-142.21;32.94;112049.66;5071525;28;20288;-79
2022/12/21 02:09:15;;;;;;;4.10;3.80;;;24.40;39.60;;;-142.21;33.17;112049.66;5072081;28;20244;-78
2022/12/21 02:11:44;;;;;;;3.87;3.50;;;24.40;39.60;;;-142.21;33.04;112049.66;5072797;28;20228;-79
2022/12/21 02:14:15;;;;;;;3.93;3.63;;;24.40;39.60;;;-142.21;33.15;112049.66;5075266;28;20241;-79
2022/12/21 02:17:01;;;;;;;3.80;3.50;;;24.40;39.60;;;-142.21;32.97;112049.66;5083152;28;20558;-79
2022/12/21 02:20:22;;;;;;;3.60;3.30;;;24.40;39.60;;;-142.21;32.96;112049.66;5095334;28;20220;-79
2022/12/21 02:23:34;;;;;;;3.70;3.40;;;24.40;39.60;;;-142.21;32.91;112049.66;5096370;28;20596;-79
2022/12/21 02:26:25;;;;;;;3.77;3.47;;;24.40;39.60;;;-142.21;33.06;112049.66;5096005;28;20271;-79
2022/12/21 02:29:57;;;;;;;3.70;3.40;;;24.40;39.60;;;-142.21;32.93;112049.66;5095458;28;20299;-79
2022/12/21 02:32:38;;;;;;;3.73;3.43;;;24.40;39.60;;;-142.21;33.11;112049.66;5084546;28;20231;-78
2022/12/21 02:35:20;;;;;;;3.93;3.63;;;24.40;39.60;;;-142.21;32.98;112049.66;5075422;28;20251;-80
2022/12/21 02:38:00;;;;;;;4.07;3.77;;;24.40;39.60;;;-142.21;32.99;112049.66;5075363;28;20223;-80
2022/12/21 02:40:40;;;;;;;3.70;3.40;;;24.40;39.50;;;-142.21;33.12;112049.66;5074679;28;20185;-82
2022/12/21 02:46:16;;;;;;;4.03;3.73;;;24.40;39.60;;;-142.21;32.98;112049.66;5074980;28;20216;-80
2022/12/21 02:48:53;;;;;;;4.17;3.77;;;24.40;39.60;;;-142.21;32.96;112049.66;5074426;28;20245;-80
2022/12/21 02:51:29;;;;;;;3.60;3.30;;;24.40;39.60;;;-142.21;32.77;112049.66;5075259;28;20273;-81
2022/12/21 02:53:59;;;;;;;4.13;3.77;;;24.40;39.60;;;-142.21;32.81;112049.66;5075229;28;20280;-81
2022/12/21 02:56:26;;;;;;;3.70;3.40;;;24.40;39.60;;;-142.21;33.01;112049.66;5074349;28;20266;-80
2022/12/21 02:58:56;;;;;;;3.80;3.50;;;24.40;39.50;;;-142.21;33.01;112049.66;5074537;28;20260;-78
2022/12/21 03:01:50;;;;;;;3.87;3.50;;;24.50;40.30;;;-142.21;33.16;112049.66;5074005;28;20237;-79
2022/12/21 03:04:46;;;;;;;3.70;3.30;;;24.40;39.60;;;-142.21;33.10;112049.66;5074192;28;20615;-79
2022/12/21 03:07:42;;;;;;;3.70;3.40;;;24.40;39.60;;;-142.21;32.77;112049.66;5074707;28;20288;-81
2022/12/21 03:10:23;;;;;;;4.00;3.70;;;24.40;39.60;;;-142.21;32.85;112049.66;5074538;28;20201;-78
2022/12/21 03:13:04;;;;;;;3.97;3.67;;;24.50;39.70;;;-142.21;32.88;112049.66;5074429;28;20224;-81
2022/12/21 03:15:49;;;;;;;3.87;3.57;;;24.50;39.70;;;-142.21;33.11;112049.66;5073959;28;20213;-78
2022/12/21 03:18:29;;;;;;;3.73;3.43;;;24.50;39.60;;;-142.21;33.13;112049.66;5074141;28;20272;-79
2022/12/21 03:21:07;;;;;;;3.70;3.40;;;24.50;39.60;;;-142.21;33.02;112049.66;5074752;28;20276;-80
2022/12/21 03:23:41;;;;;;;3.70;3.40;;;24.50;39.60;;;-142.21;32.97;112049.66;5073992;28;20220;-80
2022/12/21 03:26:17;;;;;;;3.93;3.63;;;24.50;39.70;;;-142.21;32.98;112049.66;5073975;28;20673;-80
2022/12/21 03:28:48;;;;;;;3.80;3.50;;;24.50;39.60;;;-142.21;32.97;112049.66;5073417;28;20707;-80
2022/12/21 03:31:21;;;;;;;3.70;3.40;;;24.50;39.60;;;-142.21;32.92;112049.66;5074032;28;20596;-79
2022/12/21 03:33:57;;;;;;;3.70;3.40;;;24.50;39.70;;;-142.21;32.91;112049.66;5073754;28;20227;-80
2022/12/21 03:36:36;;;;;;;3.53;3.23;;;24.50;39.60;;;-142.21;32.97;112049.66;5074130;28;20269;-80
2022/12/21 03:39:13;;;;;;;3.60;3.30;;;24.50;39.60;;;-142.21;32.91;112049.66;5073231;28;20181;-79
2022/12/21 03:41:50;;;;;;;3.23;3.00;;;24.50;39.70;;;-142.21;32.83;112049.66;5073516;28;20200;-79
2022/12/21 03:44:26;;;;;;;3.43;3.13;;;24.50;39.60;;;-142.21;32.74;112049.66;5074025;28;20271;-78
2022/12/21 03:46:59;;;;;;;3.57;3.27;;;24.50;39.60;;;-142.21;32.97;112049.66;5073903;28;20285;-79
2022/12/21 03:49:34;;;;;;;3.70;3.40;;;24.50;40.30;;;-142.21;32.85;112049.66;5073759;28;20205;-81
2022/12/21 03:52:11;;;;;;;3.60;3.30;;;24.50;39.60;;;-142.21;32.99;112049.66;5073636;28;20212;-79
2022/12/21 03:54:48;;;;;;;3.63;3.33;;;24.50;39.70;;;-142.21;32.84;112049.66;5073138;28;20264;-81
2022/12/21 03:57:19;;;;;;;3.60;3.30;;;24.50;39.70;;;-142.21;32.96;112049.66;5072818;28;20201;-79
2022/12/21 03:59:53;;;;;;;3.20;3.00;;;24.50;39.60;;;-142.21;32.81;112049.66;5072940;28;20272;-79
2022/12/21 04:02:29;;;;;;;3.23;2.93;;;24.50;40.30;;;-142.21;33.07;112049.66;5073104;28;20243;-78
2022/12/21 04:05:04;;;;;;;3.53;3.23;;;24.50;39.70;;;-142.21;33.08;112049.66;5073088;28;20274;-80
2022/12/21 04:07:38;;;;;;;2.77;2.57;;;24.50;39.70;;;-142.21;33.04;112049.66;5073213;28;20590;-78
2022/12/21 04:10:11;;;;;;;3.30;3.10;;;24.50;39.70;;;-142.21;33.31;112049.66;5073321;28;20269;-81
2022/12/21 04:12:40;;;;;;;3.10;2.90;;;24.50;39.80;;;-142.21;32.67;112049.66;5072663;28;20269;-79
2022/12/21 04:15:11;;;;;;;2.97;2.77;;;24.50;39.70;;;-142.21;32.99;112049.66;5073152;28;20606;-78
2022/12/21 04:17:40;;;;;;;3.00;2.80;;;24.50;39.80;;;-142.21;32.97;112049.66;5072679;28;20626;-80
2022/12/21 04:20:13;;;;;;;3.17;2.87;;;24.50;39.80;;;-142.21;32.94;112049.66;5073209;28;20228;-79
2022/12/21 04:28:22;;;;;;;3.20;2.90;;;24.50;39.80;;;-142.21;33.13;112049.66;5073070;28;20346;-80
2022/12/21 04:30:53;;;;;;;3.10;2.87;;;24.50;40.50;;;-142.21;32.88;112049.66;5072407;28;20233;-80
2022/12/21 04:33:23;;;;;;;2.90;2.70;;;24.50;39.90;;;-142.21;32.97;112049.66;5072840;28;20232;-81
2022/12/21 04:38:41;;;;;;;3.27;2.97;;;24.50;39.90;;;-142.21;33.24;112049.66;5072300;28;20556;-80
2022/12/21 04:41:09;;;;;;;2.73;2.53;;;24.50;39.80;;;-142.21;32.94;112049.66;5072607;28;20216;-81
2022/12/21 04:43:39;;;;;;;3.37;3.07;;;24.50;39.80;;;-142.21;33.01;112049.66;5072167;28;20208;-79
2022/12/21 04:46:11;;;;;;;3.17;2.93;;;24.50;39.80;;;-142.21;33.01;112049.66;5072961;28;20812;-79
2022/12/21 04:48:38;;;;;;;2.87;2.67;;;24.50;39.90;;;-142.21;33.19;112049.66;5072660;28;20633;-81
2022/12/21 04:51:08;;;;;;;3.00;2.80;;;24.50;39.80;;;-142.21;33.01;112049.66;5072886;28;20213;-80
2022/12/21 04:53:39;;;;;;;3.17;2.87;;;24.50;39.90;;;-142.21;33.29;112049.66;5072015;28;20726;-80
2022/12/21 04:56:08;;;;;;;3.43;3.13;;;24.50;39.80;;;-142.21;32.92;112049.66;5072531;28;20181;-80
2022/12/21 04:58:35;;;;;;;2.80;2.60;;;24.50;39.90;;;-142.21;33.11;112049.66;5072222;28;20688;-80
2022/12/21 05:01:09;;;;;;;3.17;2.87;;;24.50;39.80;;;-142.21;33.12;112049.66;5072782;28;20236;-81
2022/12/21 05:03:36;;;;;;;3.37;3.00;;;24.50;39.90;;;-142.21;33.12;112049.66;5071806;28;20664;-79
2022/12/21 05:06:03;;;;;;;2.63;2.43;;;24.50;39.80;;;-142.21;33.19;112049.66;5073106;28;20221;-80
2022/12/21 05:08:33;;;;;;;2.97;2.70;;;24.50;39.80;;;-142.21;33.17;112049.66;5072009;28;20625;-79
2022/12/21 05:11:10;;;;;;;2.80;2.60;;;24.50;39.80;;;-142.21;32.90;112049.66;5072437;28;20197;-80
2022/12/21 05:13:38;;;;;;;2.67;2.50;;;24.50;39.90;;;-142.21;33.11;112049.66;5092932;28;20201;-80
2022/12/21 05:16:08;;;;;;;2.87;2.67;;;24.50;39.80;;;-142.21;32.92;112049.66;5087600;28;20204;-79
2022/12/21 05:18:36;;;;;;;2.70;2.50;;;24.50;39.90;;;-142.21;33.05;112049.66;5072370;28;20189;-78
2022/12/21 05:21:08;;;;;;;2.83;2.63;;;24.50;39.80;;;-142.21;33.15;112049.66;5072938;28;20243;-79
2022/12/21 05:23:35;;;;;;;2.63;2.43;;;24.60;39.90;;;-142.21;33.02;112049.66;5072312;28;20669;-80
2022/12/21 05:26:03;;;;;;;2.90;2.70;;;24.50;39.80;;;-142.21;33.26;112049.66;5072488;28;20292;-80
2022/12/21 05:28:32;;;;;;;2.80;2.60;;;24.50;39.90;;;-142.21;32.97;112049.66;5072617;28;20261;-79
2022/12/21 05:30:59;;;;;;;2.73;2.53;;;24.50;39.90;;;-142.21;33.07;112049.66;5072374;28;20240;-79
2022/12/21 05:33:27;;;;;;;2.70;2.50;;;24.50;39.80;;;-142.21;33.24;112049.66;5073618;28;20235;-79
2022/12/21 05:35:56;;;;;;;2.83;2.63;;;24.50;39.80;;;-142.21;32.97;112049.66;5072095;28;20236;-79
2022/12/21 05:38:25;;;;;;;2.90;2.70;;;24.50;39.80;;;-142.21;33.39;112049.66;5072116;28;20204;-78
2022/12/21 05:40:52;;;;;;;2.60;2.40;;;24.50;39.80;;;-142.21;33.29;112049.66;5071925;28;20219;-79
2022/12/21 05:43:20;;;;;;;2.73;2.53;;;24.50;39.80;;;-142.21;33.12;112049.66;5071965;28;20205;-79
2022/12/21 05:45:49;;;;;;;2.40;2.20;;;24.50;39.80;;;-142.21;33.12;112049.66;5071759;28;20284;-79
2022/12/21 05:48:16;;;;;;;2.60;2.40;;;24.50;39.80;;;-142.21;33.24;112049.66;5075927;28;20661;-79
2022/12/21 05:50:43;;;;;;;2.30;2.10;;;24.50;39.80;;;-142.21;33.39;112049.66;5075755;28;20256;-80
2022/12/21 05:53:10;;;;;;;2.90;2.70;;;24.50;39.80;;;-142.21;33.38;112049.66;5075840;28;20638;-79
2022/12/21 05:55:38;;;;;;;2.70;2.50;;;24.50;39.80;;;-142.21;33.46;112049.66;5075385;28;20236;-79
2022/12/21 05:58:05;;;;;;;2.53;2.33;;;24.50;39.90;;;-142.21;33.24;112049.66;5075525;28;20241;-79
2022/12/21 06:00:32;;;;;;;2.60;2.40;;;24.50;39.80;;;-142.21;33.26;112049.66;5075678;28;20246;-79
2022/12/21 06:03:01;;;;;;;2.80;2.60;;;24.50;39.80;;;-142.21;33.44;112049.66;5075829;28;20208;-79
2022/12/21 06:05:28;;;;;;;2.47;2.27;;;24.50;39.90;;;-142.21;33.23;112049.66;5075185;28;20276;-78
2022/12/21 06:07:56;;;;;;;2.60;2.40;;;24.50;39.90;;;-142.21;33.36;112049.66;5075330;28;20236;-78
2022/12/21 06:10:23;;;;;;;2.80;2.53;;;24.50;39.90;;;-142.21;33.19;112049.66;5075770;28;20231;-78
2022/12/21 06:12:50;;;;;;;2.70;2.50;;;24.50;39.80;;;-142.21;33.21;112049.66;5075011;28;20200;-80
2022/12/21 06:15:18;;;;;;;2.93;2.73;;;24.50;39.80;;;-142.21;33.47;112049.66;5075319;28;20681;-79
2022/12/21 06:17:45;;;;;;;2.40;2.20;;;24.50;40.00;;;-142.21;33.07;112049.66;5074940;28;20266;-79
2022/12/21 06:20:15;;;;;;;2.70;2.50;;;24.50;39.90;;;-142.21;33.21;112049.66;5075369;28;20251;-78
2022/12/21 06:22:42;;;;;;;2.80;2.60;;;24.50;39.80;;;-142.21;33.38;112049.66;5074680;28;20201;-79
2022/12/21 06:25:10;;;;;;;2.60;2.40;;;24.50;39.90;;;-142.21;33.24;112049.66;5075485;28;20229;-78
2022/12/21 06:27:37;;;;;;;2.80;2.60;;;24.40;40.00;;;-142.21;33.23;112049.66;5074726;28;20255;-78
2022/12/21 06:30:09;;;;;;;2.40;2.20;;;24.40;39.90;;;-142.21;33.45;112049.66;5074987;28;20278;-78
2022/12/21 06:32:38;;;;;;;2.57;2.37;;;24.40;40.00;;;-142.21;33.50;112049.66;5074729;28;20251;-79
2022/12/21 06:35:07;;;;;;;2.73;2.53;;;24.50;40.10;;;-142.21;33.53;112049.66;5075583;28;20564;-80
2022/12/21 06:37:36;;;;;;;2.50;2.30;;;24.40;40.60;;;-142.21;33.59;112049.66;5075150;28;20203;-80
2022/12/21 06:40:03;;;;;;;2.30;2.10;;;24.40;39.90;;;-142.21;33.47;112049.66;5074945;27;20688;-78
2022/12/21 06:42:30;;;;;;;2.73;2.53;;;24.50;40.00;;;-142.21;33.37;112049.66;5075062;28;20251;-80
2022/12/21 06:44:58;;;;;;;2.40;2.20;;;24.40;39.80;;;-142.21;33.47;112049.66;5074568;28;20536;-79
2022/12/21 06:47:25;;;;;;;2.30;2.10;;;24.40;39.90;;;-142.21;33.23;112049.66;5074821;28;20244;-80
2022/12/21 06:49:52;;;;;;;2.60;2.40;;;24.40;39.90;;;-142.21;33.37;112049.66;5074288;28;20586;-78
2022/12/21 06:52:19;;;;;;;2.40;2.20;;;24.40;39.90;;;-142.21;33.55;112049.66;5074839;28;20290;-79
2022/12/21 06:54:48;;;;;;;2.33;2.17;;;24.50;40.00;;;-142.21;33.36;112049.66;5074274;28;20316;-79
2022/12/21 06:57:15;;;;;;;2.40;2.20;;;24.40;39.90;;;-142.21;33.26;112049.66;5075125;28;20200;-79
2022/12/21 06:59:42;;;;;;;2.27;2.07;;;24.40;39.90;;;-142.21;33.42;112049.66;5074167;28;20606;-80
2022/12/21 07:02:11;;;;;;;2.10;2.00;;;24.40;39.80;;;-142.21;33.39;112049.66;5074438;28;20219;-79
2022/12/21 07:04:38;;;;;;;2.40;2.20;;;24.40;40.00;;;-142.21;33.55;112049.66;5073796;28;20244;-80
2022/12/21 07:07:05;;;;;;;2.60;2.40;;;24.40;39.90;;;-142.21;33.29;112049.66;5074614;28;20262;-80
2022/12/21 07:09:33;;;;;;;2.40;2.20;;;24.40;40.00;;;-142.21;33.29;112049.66;5074479;28;20249;-80
2022/12/21 07:12:01;;;;;;;2.20;2.00;;;24.40;40.00;;;-142.21;33.23;112049.66;5074293;28;20314;-80
2022/12/21 07:14:28;;;;;;;2.33;2.20;;;24.40;40.00;;;-142.21;33.48;112049.66;5074438;28;20641;-80
2022/12/21 07:16:56;;;;;;;2.60;2.40;;;24.40;40.00;;;-142.21;33.38;112049.66;5073885;28;20211;-80
2022/12/21 07:19:23;;;;;;;2.23;2.13;;;24.40;40.00;;;-142.21;33.24;112049.66;5074099;28;20566;-81
2022/12/21 07:21:50;;;;;;;2.23;2.13;;;24.40;40.00;;;-142.21;33.26;112049.66;5073774;28;20236;-80
2022/12/21 07:24:20;;;;;;;2.43;2.23;;;24.40;40.10;;;-142.21;33.40;112049.66;5074332;28;20258;-79
2022/12/21 07:26:48;;;;;;;2.37;2.17;;;24.40;40.10;;;-142.21;33.53;112049.66;5073735;28;20213;-79
2022/12/21 07:29:16;;;;;;;2.30;2.10;;;24.50;40.10;;;-142.21;33.47;112049.66;5074190;28;20282;-79
2022/12/21 07:31:43;;;;;;;2.50;2.30;;;24.50;40.10;;;-142.21;33.55;112049.66;5073607;28;20246;-79
2022/12/21 07:34:11;;;;;;;2.50;2.30;;;24.40;40.00;;;-142.21;33.32;112049.66;5074236;28;20954;-78
2022/12/21 07:36:38;;;;;;;2.20;2.10;;;24.50;40.10;;;-142.21;33.38;112049.66;5073707;28;20645;-79
2022/12/21 07:39:06;;;;;;;2.50;2.30;;;24.50;40.10;;;-142.21;33.51;112049.66;5073998;28;20266;-80
2022/12/21 07:41:33;;;;;;;2.40;2.20;;;24.40;40.00;;;-142.21;33.40;112049.66;5074331;28;20224;-79
2022/12/21 07:44:00;;;;;;;2.17;2.07;;;24.40;40.00;;;-142.21;33.48;112049.66;5073194;28;20233;-79
2022/12/21 07:46:29;;;;;;;2.10;2.00;;;24.50;40.10;;;-142.21;33.58;112049.66;5073741;28;20245;-80
2022/12/21 07:48:56;;;;;;;2.30;2.10;;;24.50;40.20;;;-142.21;33.43;112049.66;5073047;28;20626;-80
2022/12/21 07:51:23;;;;;;;2.50;2.30;;;24.50;40.10;;;-142.21;33.41;112049.66;5073621;28;20250;-79
2022/12/21 07:53:51;;;;;;;2.10;2.00;;;24.50;40.10;;;-142.21;33.47;112049.66;5073284;28;20649;-79
2022/12/21 07:56:20;;;;;;;1.90;1.80;;;24.50;40.10;;;-142.21;33.38;112049.66;5073692;28;20641;-80
2022/12/21 07:58:47;;;;;;;2.13;2.00;;;24.50;40.10;;;-142.21;33.55;112049.66;5073270;28;20692;-79
2022/12/21 08:01:18;;;;;;;2.00;1.90;;;24.50;40.30;;;-142.21;33.45;112049.66;5073303;28;20243;-79
2022/12/21 08:03:47;;;;;;;2.30;2.10;;;24.50;40.30;;;-142.21;33.49;112049.66;5072404;28;20221;-81
2022/12/21 08:06:16;;;;;;;1.83;1.73;;;24.50;40.30;;;-142.21;33.46;112049.66;5073442;28;20185;-81
2022/12/21 08:08:47;;;;;;;1.90;1.80;;;24.50;40.30;;;-142.21;33.21;112049.66;5072177;28;20255;-81
2022/12/21 08:11:20;;;;;;;2.10;2.00;;;24.40;40.10;;;-142.21;33.36;112049.66;5073250;28;20221;-78
2022/12/21 08:13:49;;;;;;;2.00;1.90;;;24.50;40.30;;;-142.21;33.29;112049.66;5072914;28;20621;-79
2022/12/21 08:16:21;;;;;;;2.20;2.03;;;24.50;40.30;;;-142.21;33.58;112049.66;5073036;28;20270;-82
2022/12/21 08:18:50;;;;;;;2.03;1.93;;;24.50;40.30;;;-142.21;33.55;112049.66;5072765;28;20228;-80
2022/12/21 08:21:20;;;;;;;2.47;2.27;;;24.40;40.10;;;-142.21;33.56;112049.66;5073103;28;20209;-80
2022/12/21 08:23:48;;;;;;;2.07;1.97;;;24.40;40.20;;;-142.21;33.59;112049.66;5072905;28;20185;-80
2022/12/21 08:26:16;;;;;;;2.23;2.03;;;24.50;40.30;;;-142.21;33.53;112049.66;5073342;28;20313;-81
2022/12/21 08:28:44;;;;;;;2.30;2.10;;;24.50;40.20;;;-142.21;33.55;112049.66;5073090;28;20220;-80
2022/12/21 08:31:15;;;;;;;2.10;1.90;;;24.50;40.30;;;-142.21;33.32;112049.66;5072874;28;20321;-80
2022/12/21 08:33:44;;;;;;;1.90;1.80;;;24.50;40.30;;;-142.21;33.67;112049.66;5072806;28;20531;-81
2022/12/21 08:36:16;;;;;;;2.20;2.00;;;24.50;40.30;;;-142.21;33.64;112049.66;5072821;28;20204;-80
2022/12/21 08:38:44;;;;;;;2.00;1.90;;;24.50;40.30;;;-142.21;33.58;112049.66;5073118;28;20238;-80
2022/12/21 08:41:11;;;;;;;1.70;1.60;;;24.50;40.30;;;-142.21;33.46;112049.66;5081181;28;20201;-82
2022/12/21 08:43:39;;;;;;;2.00;1.90;;;24.50;40.30;;;-142.21;33.69;112049.66;5095097;28;20197;-80
2022/12/21 08:46:10;;;;;;;1.90;1.80;;;24.50;40.30;;;-142.21;33.49;112049.66;5079401;28;20189;-79
2022/12/21 08:48:38;;;;;;;2.20;2.03;;;24.50;40.30;;;-142.21;33.60;112049.66;5080936;28;20228;-78
2022/12/21 08:51:07;;;;;;;2.07;1.97;;;24.50;40.30;;;-142.21;33.58;112049.66;5092868;28;20220;-80
2022/12/21 08:53:38;;;;;;;1.83;1.73;;;24.50;40.40;;;-142.21;33.37;112049.66;5093510;28;20214;-79
2022/12/21 08:56:06;;;;;;;1.87;1.77;;;24.50;40.40;;;-142.21;33.37;112049.66;5092699;28;20642;-78
2022/12/21 08:58:34;;;;;;;1.93;1.83;;;24.50;40.30;;;-142.21;33.46;112049.66;5093174;28;20224;-78
2022/12/21 09:01:02;;;;;;;2.10;2.00;;;24.50;40.30;;;-142.21;33.61;112049.66;5092085;28;20239;-79
2022/12/21 09:03:29;;;;;;;2.30;2.10;;;24.50;40.30;;;-142.21;33.33;112049.66;5092348;28;20223;-79
2022/12/21 09:05:59;;;;;;;1.90;1.80;;;24.50;40.20;;;-142.21;33.64;112049.66;5092443;28;20651;-78
2022/12/21 09:08:27;;;;;;;1.70;1.60;;;24.50;40.30;;;-142.21;33.54;112049.66;5092885;28;20237;-80
2022/12/21 09:11:03;;;;;;;2.13;1.70;;;24.50;40.30;;;-142.21;33.75;112049.66;5092393;28;20220;-78
2022/12/21 09:13:30;;;;;;;2.00;1.80;;;24.50;40.40;;;-142.21;33.75;112049.66;5092661;28;20648;-78
2022/12/21 09:15:58;;;;;;;2.00;1.90;;;24.50;40.30;;;-142.21;33.80;112049.66;5091957;28;20196;-78
2022/12/21 09:18:25;;;;;;;1.90;1.80;;;24.50;40.40;;;-142.21;33.60;112049.66;5092434;28;20223;-79
2022/12/21 09:20:54;;;;;;;1.87;1.77;;;24.50;40.30;;;-142.21;33.69;112049.66;5093959;28;20205;-80
2022/12/21 09:23:22;;;;;;;2.13;2.03;;;24.50;40.30;;;-142.21;33.67;112049.66;5096729;28;20256;-80
2022/12/21 09:25:49;;;;;;;2.00;1.90;;;24.50;40.30;;;-142.21;33.69;112049.66;5096646;28;20224;-79
2022/12/21 09:28:18;;;;;;;2.00;1.90;;;24.60;40.40;;;-142.21;33.38;112049.66;5096835;28;20215;-80
2022/12/21 09:30:45;;;;;;;1.80;1.70;;;24.50;40.40;;;-142.21;33.53;112049.66;5096168;28;20227;-79
2022/12/21 09:33:13;;;;;;;2.10;2.00;;;24.50;40.30;;;-142.21;33.55;112049.66;5079622;28;20308;-79
2022/12/21 09:35:40;;;;;;;1.97;1.87;;;24.50;40.40;;;-142.21;33.86;112049.66;5076064;28;20632;-78
2022/12/21 09:38:08;;;;;;;2.00;1.80;;;24.50;40.30;;;-142.21;33.73;112049.66;5075952;28;20231;-78
2022/12/21 09:40:36;;;;;;;2.20;2.00;;;24.50;40.30;;;-142.21;33.40;112049.66;5076155;28;20340;-80
2022/12/21 09:43:18;;;;;;;1.90;1.80;;;24.50;40.30;;;-142.21;33.60;112049.66;5075578;28;20233;-78
2022/12/21 09:46:00;;;;;;;1.83;1.73;;;24.60;40.50;;;-142.21;33.55;112049.66;5076098;28;20238;-80
2022/12/21 09:48:36;;;;;;;1.70;1.60;;;24.60;40.50;;;-142.21;33.62;112049.66;5076543;28;20227;-81
2022/12/21 09:51:14;;;;;;;1.97;1.83;;;24.50;40.40;;;-142.21;33.71;112049.66;5075515;28;20205;-79
2022/12/21 09:53:50;;;;;;;1.87;1.77;;;24.60;40.50;;;-142.21;33.69;112049.66;5075893;28;20187;-78
2022/12/21 09:56:22;;;;;;;1.90;1.80;;;24.50;40.40;;;-142.21;33.46;112049.66;5076304;28;20199;-78
2022/12/21 09:58:52;;;;;;;1.60;1.50;;;24.60;40.50;;;-142.21;33.43;112049.66;5075762;28;20205;-78
2022/12/21 10:01:42;;;;;;;1.53;1.43;;;24.60;40.50;;;-142.21;33.55;112049.66;5075977;28;20221;-79
2022/12/21 10:04:34;;;;;;;2.00;1.80;;;24.60;40.50;;;-142.21;33.39;112049.66;5075039;28;20236;-78
2022/12/21 10:07:28;;;;;;;1.67;1.57;;;24.60;40.50;;;-142.21;33.73;112049.66;5075518;28;20272;-80
2022/12/21 10:10:11;;;;;;;1.70;1.60;;;24.60;40.50;;;-142.21;33.65;112049.66;5075360;28;20228;-78
2022/12/21 10:12:53;;;;;;;1.60;1.50;;;24.60;40.50;;;-142.21;33.83;112049.66;5075384;28;20254;-78
2022/12/21 10:15:32;;;;;;;2.10;1.90;;;24.60;40.40;;;-142.21;33.57;112049.66;5075325;28;20243;-79
2022/12/21 10:18:15;;;;;;;1.80;1.70;;;24.60;40.50;;;-142.21;33.53;112049.66;5074856;28;20220;-78
2022/12/21 10:20:57;;;;;;;1.80;1.70;;;24.60;40.50;;;-142.21;33.61;112049.66;5075474;28;20189;-79
2022/12/21 10:23:28;;;;;;;1.70;1.60;;;24.60;40.50;;;-142.21;33.38;112049.66;5075285;28;20236;-80
2022/12/21 10:25:59;;;;;;;2.20;1.60;;;24.60;40.50;;;-142.21;33.63;112049.66;5075054;28;20634;-79
2022/12/21 10:28:45;;;;;;;1.70;1.60;;;24.60;40.50;;;-142.21;33.67;112049.66;5074988;28;20213;-79
2022/12/21 10:31:22;;;;;;;1.80;1.70;;;24.60;40.50;;;-142.21;33.85;112049.66;5075110;28;20694;-79